Denver, Colorado
Current Conditions -  °F | °C
As of 12:58 AM on Saturday 29 Nov 2014 (Local Time) from KBKF Reporting Station
Broken Clouds Broken Clouds  
Wind Chill:   Ceiling: 22000
Heat Index:   Visibility: 10mi
Dew Point: -12°   Wind: 13mph
Humidity: 27%   Direction: 180°S
Pressure: 29.77"   Gusts: NA
Location:  39.74°N, 104.99°W
Report Text: KBKF 290758Z 18011KT 10SM BKN220 06/M12 A2977 RMK AO2A SLP031 T00641117
Loading
Personal Weather Stations






























Interactive Weather Map New forecast layout! Learn more

10-Day Weather Forecast

Advertisements
Track Severe Weather on mobile